King Marcus — LM6697 — position and weather

sailwx.info

Track history (hours):
 
Tides and Currents Weather Stations Pressure Air Temp Water Temp Dewpoint Dewpoint Depression Visibility Wind Speed Wind Dir Waves Ship Positions

King Marcus

Last reported at 2018-Jun-18 21:58 UTC. Time now 2018-Jun-23 04:43 UTC.
Position N 68°54' E 016°56'.

Length 16 m.

Type: Fishing. MMSI: 257346920.

Date/timePositionNaut miles runAvg speedWind from/ knotsBaromVisibWave heightAir tempDewpointWater temp
2018-Jun-18 21:58N 68°54' E 016°56'4 6.5
2018-Jun-18 21:19N 68°56' E 017°05'2 6.8
2018-Jun-18 21:00N 68°58' E 017°10'3 6.8
2018-Jun-18 20:30N 69°01' E 017°16'4 7.0
2018-Jun-18 20:00N 69°04' E 017°21'3 6.4
2018-Jun-18 19:30N 69°06' E 017°27'4 7.1
2018-Jun-18 19:00N 69°07' E 017°36'4 7.4
2018-Jun-18 18:30N 69°09' E 017°46'4 7.3
2018-Jun-18 18:00N 69°10' E 017°55'  
Track history (hours):
 
Tides and Currents Weather Stations Pressure Air Temp Water Temp Dewpoint Dewpoint Depression Visibility Wind Speed Wind Dir Waves Ship Positions

King Marcus

Last reported at 2018-Jun-18 21:58 UTC. Time now 2018-Jun-23 04:43 UTC.
Position N 68°54' E 016°56'.

Length 16 m.

Type: Fishing. MMSI: 257346920.

Date/timePositionNaut miles runAvg speedWind from/ knotsBaromVisibWave heightAir tempDewpointWater temp
2018-Jun-18 21:58N 68°54' E 016°56'4 6.5
2018-Jun-18 21:19N 68°56' E 017°05'2 6.8
2018-Jun-18 21:00N 68°58' E 017°10'3 6.8
2018-Jun-18 20:30N 69°01' E 017°16'4 7.0
2018-Jun-18 20:00N 69°04' E 017°21'3 6.4
2018-Jun-18 19:30N 69°06' E 017°27'4 7.1
2018-Jun-18 19:00N 69°07' E 017°36'4 7.4
2018-Jun-18 18:30N 69°09' E 017°46'4 7.3
2018-Jun-18 18:00N 69°10' E 017°55'  

Dump ship's entire track history